createdAt,value
2023-10-31T00:00:35.567Z,97441.38
2023-10-31T00:04:38.880Z,97446.53
2023-10-31T00:08:41.014Z,97456.97
2023-10-31T00:12:43.086Z,97463.81
2023-10-31T00:16:45.282Z,97460.25
2023-10-31T00:20:48.211Z,97465.91
2023-10-31T00:24:50.230Z,97463.53
2023-10-31T00:28:52.402Z,97462.25
2023-10-31T00:32:54.540Z,97469.09
2023-10-31T00:36:56.621Z,97469.88
2023-10-31T00:40:58.745Z,97469.66
2023-10-31T00:45:01.118Z,97470.44
2023-10-31T00:49:04.839Z,97479.63
2023-10-31T00:53:08.219Z,97484.75
2023-10-31T00:57:10.414Z,97478.84
2023-10-31T01:01:12.560Z,97474.13
2023-10-31T01:05:15.736Z,97488.16
2023-10-31T01:09:18.168Z,97483.44
2023-10-31T01:13:20.587Z,97487.34
2023-10-31T01:17:22.954Z,97489.50
2023-10-31T01:21:25.217Z,97488.63
2023-10-31T01:25:27.321Z,97486.97
2023-10-31T01:29:29.413Z,97490.31
2023-10-31T01:33:32.601Z,97488.88
2023-10-31T01:37:34.782Z,97475.75
2023-10-31T01:41:37.545Z,97459.91
2023-10-31T01:45:39.675Z,97462.13
2023-10-31T01:49:42.127Z,97464.03
2023-10-31T01:53:44.244Z,97470.38
2023-10-31T01:57:48.313Z,97477.69
2023-10-31T02:01:51.017Z,97478.81
2023-10-31T02:05:57.666Z,97479.53
2023-10-31T02:10:05.166Z,97470.56
2023-10-31T02:14:10.808Z,97458.53
2023-10-31T02:18:14.482Z,97458.25
2023-10-31T02:22:16.515Z,97449.38
2023-10-31T02:26:19.160Z,97454.28
2023-10-31T02:30:21.720Z,97459.56
2023-10-31T02:34:23.787Z,97455.75
2023-10-31T02:38:25.879Z,97462.41
2023-10-31T02:42:33.737Z,97442.44
2023-10-31T02:47:00.617Z,97430.69
2023-10-31T02:51:02.905Z,97420.34
2023-10-31T02:55:05.420Z,97425.38
2023-10-31T02:59:07.815Z,97431.75
2023-10-31T03:03:10.064Z,97424.72
2023-10-31T03:07:12.207Z,97424.97
2023-10-31T03:11:28.111Z,97406.22
2023-10-31T03:15:32.411Z,97414.97
2023-10-31T03:19:34.493Z,97394.22
2023-10-31T03:23:36.524Z,97408.06
2023-10-31T03:27:38.929Z,97402.22
2023-10-31T03:31:41.042Z,97397.47
2023-10-31T03:35:45.064Z,97401.63
2023-10-31T03:39:47.192Z,97412.72
2023-10-31T03:43:49.234Z,97434.44
2023-10-31T03:47:51.297Z,97428.28
2023-10-31T03:51:53.539Z,97443.47
2023-10-31T03:55:55.577Z,97432.59
2023-10-31T03:59:57.699Z,97451.94
2023-10-31T04:16:25.694Z,97452.91
2023-10-31T04:20:27.838Z,97429.00
2023-10-31T04:24:29.928Z,97428.44
2023-10-31T04:28:31.996Z,97424.31
2023-10-31T04:32:34.125Z,97421.84
2023-10-31T04:36:36.198Z,97451.84
2023-10-31T04:40:38.253Z,97435.38
2023-10-31T04:44:40.375Z,97408.47
2023-10-31T04:48:42.477Z,97406.50
2023-10-31T04:52:44.748Z,97406.84
2023-10-31T04:56:48.821Z,97377.53
2023-10-31T05:00:50.855Z,97386.25
2023-10-31T05:04:53.112Z,97378.22
2023-10-31T05:08:55.190Z,97343.06
2023-10-31T05:12:58.162Z,97368.13
2023-10-31T05:17:00.229Z,97391.56
2023-10-31T05:21:02.297Z,97410.84
2023-10-31T05:25:04.956Z,97414.13
2023-10-31T05:47:45.061Z,97505.94
2023-10-31T05:51:57.144Z,97498.38
2023-10-31T05:56:03.312Z,97529.28
2023-10-31T06:00:11.911Z,97533.25
2023-10-31T06:04:18.665Z,97537.03
2023-10-31T06:08:24.711Z,97516.53
2023-10-31T06:12:28.361Z,97515.75
2023-10-31T06:16:30.728Z,97535.28
2023-10-31T06:20:32.883Z,97543.16
2023-10-31T06:24:35.016Z,97558.13
2023-10-31T06:28:41.553Z,97570.16
2023-10-31T06:32:47.958Z,97582.00
2023-10-31T06:36:50.059Z,97599.97
2023-10-31T06:40:52.209Z,97613.41
2023-10-31T06:44:54.859Z,97618.28
2023-10-31T06:48:56.950Z,97632.97
2023-10-31T06:52:59.020Z,97641.59
2023-10-31T06:57:02.612Z,97632.88
2023-10-31T07:01:04.936Z,97623.25
2023-10-31T07:05:07.434Z,97629.28
2023-10-31T07:09:10.507Z,97632.31
2023-10-31T07:13:13.399Z,97633.56
2023-10-31T07:17:15.602Z,97624.38
2023-10-31T07:21:18.006Z,97641.44
2023-10-31T07:25:20.224Z,97627.06
2023-10-31T07:29:22.892Z,97632.75
2023-10-31T07:33:25.418Z,97618.00
2023-10-31T07:37:27.597Z,97615.28
2023-10-31T07:41:30.849Z,97624.16
2023-10-31T07:45:34.973Z,97621.59
2023-10-31T07:49:37.024Z,97623.78
2023-10-31T07:53:39.070Z,97620.13
2023-10-31T07:57:41.263Z,97633.84
2023-10-31T08:01:43.376Z,97639.19
2023-10-31T08:05:45.515Z,97644.88
2023-10-31T08:09:47.660Z,97661.16
2023-10-31T08:13:49.748Z,97678.53
2023-10-31T08:17:52.019Z,97663.81
2023-10-31T08:21:55.837Z,97679.63
2023-10-31T08:25:59.204Z,97697.13
2023-10-31T08:30:01.293Z,97695.97
2023-10-31T08:34:03.322Z,97699.88
2023-10-31T08:38:05.676Z,97707.56
2023-10-31T08:42:08.487Z,97726.34
2023-10-31T08:46:10.494Z,97729.34
2023-10-31T08:50:12.730Z,97740.28
2023-10-31T08:54:14.918Z,97745.84
2023-10-31T08:58:19.424Z,97756.44
2023-10-31T09:02:21.371Z,97749.44
2023-10-31T09:06:23.455Z,97743.03
2023-10-31T09:10:25.520Z,97756.53
2023-10-31T09:14:28.218Z,97777.81
2023-10-31T09:18:30.446Z,97783.34
2023-10-31T09:22:32.490Z,97784.25
2023-10-31T09:26:34.822Z,97801.16
2023-10-31T09:30:37.059Z,97816.75
2023-10-31T09:34:39.136Z,97822.38
2023-10-31T09:38:41.631Z,97819.50
2023-10-31T09:42:44.901Z,97833.47
2023-10-31T09:46:48.069Z,97838.19
2023-10-31T09:50:51.698Z,97836.47
2023-10-31T09:54:54.572Z,97839.81
2023-10-31T09:58:56.833Z,97857.81
2023-10-31T10:02:59.434Z,97848.59
2023-10-31T10:07:03.581Z,97848.31
2023-10-31T10:11:06.685Z,97845.69
2023-10-31T10:15:09.226Z,97843.88
2023-10-31T10:19:21.137Z,97844.50
2023-10-31T10:23:24.348Z,97845.09
2023-10-31T10:27:26.559Z,97832.75
2023-10-31T10:31:28.636Z,97844.34
2023-10-31T10:35:30.740Z,97844.75
2023-10-31T10:39:35.606Z,97833.25
2023-10-31T10:43:40.340Z,97827.41
2023-10-31T10:47:49.446Z,97833.59
2023-10-31T10:52:03.220Z,97825.31
2023-10-31T10:56:14.214Z,97843.47
2023-10-31T11:00:17.842Z,97837.16
2023-10-31T11:04:20.448Z,97839.38
2023-10-31T11:08:24.981Z,97836.97
2023-10-31T11:12:27.342Z,97829.63
2023-10-31T11:16:44.095Z,97824.47
2023-10-31T11:20:46.420Z,97806.66
2023-10-31T11:24:51.091Z,97823.66
2023-10-31T11:28:53.190Z,97833.69
2023-10-31T11:33:06.530Z,97820.19
2023-10-31T11:37:28.239Z,97826.91
2023-10-31T11:41:33.922Z,97825.03
2023-10-31T11:45:43.311Z,97820.97
2023-10-31T11:49:51.176Z,97822.25
2023-10-31T11:53:53.847Z,97815.94
2023-10-31T11:57:56.066Z,97826.41
2023-10-31T12:01:58.189Z,97832.44
2023-10-31T12:06:03.121Z,97847.53
2023-10-31T12:10:06.351Z,97859.25
2023-10-31T12:14:08.313Z,97862.63
2023-10-31T12:18:10.749Z,97860.28
2023-10-31T12:22:16.524Z,97851.81
2023-10-31T12:26:23.190Z,97855.94
2023-10-31T12:30:25.258Z,97851.09
2023-10-31T12:34:28.243Z,97852.03
2023-10-31T12:38:30.847Z,97850.00
2023-10-31T12:42:34.138Z,97850.25
2023-10-31T12:46:36.469Z,97852.47
2023-10-31T12:50:41.588Z,97848.78
2023-10-31T12:54:43.683Z,97854.28
2023-10-31T12:58:46.174Z,97871.44
2023-10-31T13:02:48.608Z,97860.81
2023-10-31T13:07:04.445Z,97884.31
2023-10-31T13:11:10.395Z,97900.31
2023-10-31T13:15:12.513Z,97913.41
2023-10-31T13:19:14.466Z,97896.94
2023-10-31T13:23:16.493Z,97929.38
2023-10-31T13:27:18.569Z,97923.28
2023-10-31T13:31:20.713Z,97941.03
2023-10-31T13:35:22.918Z,97951.44
2023-10-31T13:39:25.173Z,97953.13
2023-10-31T13:43:27.348Z,97952.19
2023-10-31T13:47:31.399Z,97968.81
2023-10-31T13:51:33.819Z,97979.53
2023-10-31T13:55:35.897Z,97979.66
2023-10-31T13:59:38.170Z,97992.59
2023-10-31T14:03:42.970Z,97987.75
2023-10-31T14:07:45.669Z,97986.91
2023-10-31T14:11:47.772Z,97994.25
2023-10-31T14:42:45.468Z,98039.44
2023-10-31T14:46:48.002Z,98038.16
2023-10-31T14:50:50.432Z,98051.47
2023-10-31T14:54:52.810Z,98061.06
2023-10-31T14:58:54.891Z,98054.69
2023-10-31T15:02:58.059Z,98048.88
2023-10-31T15:07:00.248Z,98069.41
2023-10-31T15:11:02.925Z,98072.38
2023-10-31T15:15:05.384Z,98077.06
2023-10-31T15:19:08.018Z,98079.59
2023-10-31T15:23:10.248Z,98077.88
2023-10-31T15:27:15.195Z,98096.19
2023-10-31T15:31:17.382Z,98107.66
2023-10-31T15:35:19.560Z,98116.09
2023-10-31T15:39:23.210Z,98113.41
2023-10-31T15:43:25.383Z,98124.97
2023-10-31T15:47:27.569Z,98139.19
2023-10-31T15:51:30.580Z,98150.25
2023-10-31T15:55:32.746Z,98173.97
2023-10-31T15:59:35.368Z,98176.72
2023-10-31T16:03:37.642Z,98171.28
2023-10-31T16:07:40.396Z,98177.97
2023-10-31T16:11:42.416Z,98166.13
2023-10-31T16:15:44.645Z,98198.94
2023-10-31T16:19:46.700Z,98188.72
2023-10-31T16:23:51.790Z,98183.03
2023-10-31T16:27:53.840Z,98182.47
2023-10-31T16:31:56.208Z,98198.06
2023-10-31T16:35:58.275Z,98204.81
2023-10-31T16:40:00.393Z,98223.88
2023-10-31T16:44:02.454Z,98238.78
2023-10-31T16:48:05.534Z,98243.25
2023-10-31T16:52:07.573Z,98254.75
2023-10-31T16:56:09.692Z,98251.69
2023-10-31T17:00:12.575Z,98253.63
2023-10-31T17:04:14.704Z,98270.69
2023-10-31T17:08:17.129Z,98277.59
2023-10-31T17:12:19.157Z,98289.56
2023-10-31T17:16:21.511Z,98289.75
2023-10-31T17:20:23.973Z,98291.81
2023-10-31T17:24:26.098Z,98293.00
2023-10-31T17:28:28.744Z,98298.16
2023-10-31T17:32:32.672Z,98297.16
2023-10-31T17:36:34.767Z,98292.50
2023-10-31T17:40:36.909Z,98286.72
2023-10-31T17:44:39.153Z,98287.22
2023-10-31T17:48:41.519Z,98288.44
2023-10-31T17:52:43.577Z,98298.38
2023-10-31T17:56:45.692Z,98301.06
2023-10-31T18:00:47.844Z,98306.91
2023-10-31T18:04:49.996Z,98297.16
2023-10-31T18:08:52.178Z,98304.41
2023-10-31T18:12:54.376Z,98304.91
2023-10-31T18:16:56.469Z,98307.00
2023-10-31T18:21:02.291Z,98312.88
2023-10-31T18:25:05.289Z,98312.06
2023-10-31T18:29:07.789Z,98331.66
2023-10-31T18:33:09.929Z,98348.63
2023-10-31T18:37:12.869Z,98346.72
2023-10-31T18:41:16.305Z,98350.38
2023-10-31T18:45:18.595Z,98349.56
2023-10-31T18:49:20.712Z,98349.84
2023-10-31T18:53:22.795Z,98349.38
2023-10-31T18:57:25.501Z,98350.00
2023-10-31T19:01:27.671Z,98342.88
2023-10-31T19:05:33.137Z,98343.44
2023-10-31T19:09:35.540Z,98365.41
2023-10-31T19:13:37.796Z,98374.19
2023-10-31T19:17:42.218Z,98372.78
2023-10-31T19:21:44.380Z,98383.00
2023-10-31T19:25:46.384Z,98383.31
2023-10-31T19:29:48.601Z,98371.97
2023-10-31T19:33:51.303Z,98374.91
2023-10-31T19:37:53.490Z,98381.88
2023-10-31T19:41:58.010Z,98379.28
2023-10-31T19:46:04.626Z,98381.84
2023-10-31T19:50:07.280Z,98387.84
2023-10-31T19:54:09.711Z,98386.28
2023-10-31T19:58:11.781Z,98384.84
2023-10-31T20:02:16.850Z,98394.41
2023-10-31T20:06:20.727Z,98407.66
2023-10-31T20:10:22.805Z,98415.13
2023-10-31T20:14:24.960Z,98419.66
2023-10-31T20:18:28.716Z,98425.53
2023-10-31T20:22:30.844Z,98426.53
2023-10-31T20:26:32.995Z,98430.34
2023-10-31T20:30:35.384Z,98440.06
2023-10-31T20:34:37.542Z,98446.25
2023-10-31T20:38:40.136Z,98454.31
2023-10-31T20:42:43.949Z,98448.41
2023-10-31T20:46:47.723Z,98447.72
2023-10-31T20:50:50.940Z,98445.03
2023-10-31T20:54:53.067Z,98447.19
2023-10-31T20:58:55.550Z,98458.16
2023-10-31T21:03:05.608Z,98460.53
2023-10-31T21:07:09.017Z,98456.66
2023-10-31T21:11:11.115Z,98454.41
2023-10-31T21:15:13.383Z,98456.00
2023-10-31T21:19:21.507Z,98449.81
2023-10-31T21:23:29.943Z,98449.63
2023-10-31T21:27:32.148Z,98462.41
2023-10-31T21:31:34.342Z,98472.31
2023-10-31T21:35:36.429Z,98456.91
2023-10-31T21:39:41.894Z,98467.59
2023-10-31T21:43:44.209Z,98456.34
2023-10-31T21:47:46.382Z,98473.00
2023-10-31T21:51:48.444Z,98470.50
2023-10-31T21:55:50.465Z,98473.22
2023-10-31T21:59:52.489Z,98473.72
2023-10-31T22:03:54.700Z,98476.13
2023-10-31T22:07:56.885Z,98473.91
2023-10-31T22:11:59.273Z,98481.41
2023-10-31T22:16:01.787Z,98486.63
2023-10-31T22:20:06.273Z,98485.25
2023-10-31T22:24:08.512Z,98490.13
2023-10-31T22:28:10.803Z,98494.41
2023-10-31T22:32:12.814Z,98500.25
2023-10-31T22:36:14.994Z,98505.56
2023-10-31T22:40:17.252Z,98501.81
2023-10-31T22:44:19.524Z,98495.91
2023-10-31T22:48:22.344Z,98491.94
2023-10-31T22:52:24.525Z,98493.34
2023-10-31T22:56:26.612Z,98507.09
2023-10-31T23:00:29.358Z,98506.09
2023-10-31T23:04:31.448Z,98499.88
2023-10-31T23:08:33.458Z,98518.97
2023-10-31T23:12:36.152Z,98518.38
2023-10-31T23:16:38.436Z,98525.88
2023-10-31T23:20:40.735Z,98529.88
2023-10-31T23:24:47.778Z,98541.09
2023-10-31T23:28:49.880Z,98541.09
2023-10-31T23:32:52.810Z,98540.84
2023-10-31T23:36:55.011Z,98534.44
2023-10-31T23:40:57.139Z,98534.97
2023-10-31T23:44:59.655Z,98540.84
2023-10-31T23:49:01.672Z,98538.16
2023-10-31T23:53:03.992Z,98544.28
2023-10-31T23:57:06.110Z,98538.44
